Time;durP1;ratioP1;P1;durP2;ratioP2;P2;SDS_P1;SDS_P2;PMS_P1;PMS_P2;Temp;Humidity;BMP_temperature;BMP_pressure;BME280_temperature;BME280_humidity;BME280_pressure;Samples;Min_cycle;Max_cycle;Signal;HPM_P1;HPM_P2
2021/11/19 07:34:46;;;;;;;20.42;8.80;;;;;;;;;;10550462;27;20148;-80
2021/11/19 07:39:47;;;;;;;26.70;9.02;;;;;;;;;;10523436;28;20119;-81
2021/11/19 07:44:47;;;;;;;24.27;8.57;;;;;;;;;;10501435;28;20032;-80
2021/11/19 07:49:48;;;;;;;22.20;9.25;;;;;;;;;;10503203;28;20058;-80
2021/11/19 07:54:49;;;;;;;24.70;8.37;;;;;;;;;;10520608;28;20074;-80
2021/11/19 07:59:49;;;;;;;20.63;8.15;;;;;;;;;;10512899;28;20457;-79
2021/11/19 08:04:50;;;;;;;16.88;7.68;;;;;;;;;;10515771;28;20519;-80
2021/11/19 08:09:51;;;;;;;20.00;8.52;;;;;;;;;;10502802;28;20024;-80
2021/11/19 08:14:51;;;;;;;11.20;7.45;;;;;;;;;;10521888;28;20037;-80
2021/11/19 08:19:52;;;;;;;13.00;7.97;;;;;;;;;;10508900;28;20017;-80
2021/11/19 08:24:53;;;;;;;16.42;8.05;;;;;;;;;;10519603;28;20044;-80
2021/11/19 08:29:55;;;;;;;14.27;7.78;;;;;;;;;;10517315;28;20032;-80
2021/11/19 08:34:56;;;;;;;20.55;8.00;;;;;;;;;;10563441;28;20168;-80
2021/11/19 08:39:57;;;;;;;13.15;7.65;;;;;;;;;;10554116;28;20157;-80
2021/11/19 08:44:57;;;;;;;15.10;7.85;;;;;;;;;;10544117;28;20025;-80
2021/11/19 08:50:01;;;;;;;11.57;7.38;;;;;;;;;;10539349;28;20457;-80
2021/11/19 08:55:04;;;;;;;17.33;6.75;;;;;;;;;;10522903;28;20024;-80
2021/11/19 09:00:12;;;;;;;14.23;7.97;;;;;;;;;;10506661;28;20140;-80
2021/11/19 09:05:12;;;;;;;9.32;6.57;;;;;;;;;;10505546;28;20036;-80
2021/11/19 09:10:15;;;;;;;11.73;6.93;;;;;;;;;;10517405;28;20090;-79
2021/11/19 09:15:18;;;;;;;13.80;7.85;;;;;;;;;;10518424;28;20425;-80
2021/11/19 09:20:18;;;;;;;14.70;7.32;;;;;;;;;;10518823;28;20477;-77
2021/11/19 09:25:22;;;;;;;10.10;6.90;;;;;;;;;;10536845;28;20024;-78
2021/11/19 09:30:31;;;;;;;12.40;7.40;;;;;;;;;;10527228;28;20055;-78
2021/11/19 09:35:32;;;;;;;9.93;7.10;;;;;;;;;;10538921;28;20388;-78
2021/11/19 09:40:40;;;;;;;13.45;7.53;;;;;;;;;;10522074;28;20470;-78
2021/11/19 09:45:55;;;;;;;11.43;7.50;;;;;;;;;;10526531;28;20020;-78
2021/11/19 09:51:13;;;;;;;11.45;7.55;;;;;;;;;;10518852;28;20044;-78
2021/11/19 09:56:47;;;;;;;9.55;7.15;;;;;;;;;;10523761;28;20024;-79
2021/11/19 10:02:06;;;;;;;12.90;7.15;;;;;;;;;;10499160;28;20028;-79
2021/11/19 10:07:37;;;;;;;10.68;7.20;;;;;;;;;;10535800;28;20115;-79
2021/11/19 10:12:37;;;;;;;8.55;7.07;;;;;;;;;;10509407;28;20121;-79
2021/11/19 10:18:00;;;;;;;10.63;7.30;;;;;;;;;;10530358;28;20538;-79
2021/11/19 10:23:26;;;;;;;9.75;7.15;;;;;;;;;;10500009;28;20115;-79
2021/11/19 10:28:40;;;;;;;11.82;7.00;;;;;;;;;;10516064;28;20427;-80
2021/11/19 10:33:56;;;;;;;11.43;6.72;;;;;;;;;;10508759;28;20044;-79
2021/11/19 10:39:42;;;;;;;9.60;7.30;;;;;;;;;;10504703;28;20050;-79
2021/11/19 10:45:19;;;;;;;7.95;6.93;;;;;;;;;;10406716;28;20048;-79
2021/11/19 10:50:43;;;;;;;13.10;7.25;;;;;;;;;;10524386;28;20477;-78
2021/11/19 10:55:46;;;;;;;9.27;7.03;;;;;;;;;;10519449;28;20381;-79
2021/11/19 11:01:16;;;;;;;8.95;6.53;;;;;;;;;;10528816;28;20637;-79
2021/11/19 11:06:17;;;;;;;11.13;7.28;;;;;;;;;;10512230;28;20037;-78
2021/11/19 11:11:20;;;;;;;9.85;6.63;;;;;;;;;;10488212;28;20036;-79
2021/11/19 11:16:21;;;;;;;12.80;6.97;;;;;;;;;;10508162;28;20089;-79
2021/11/19 11:21:24;;;;;;;11.00;6.33;;;;;;;;;;10508354;28;20542;-79
2021/11/19 11:26:56;;;;;;;10.52;6.57;;;;;;;;;;10522688;28;20031;-79
2021/11/19 11:32:19;;;;;;;9.05;6.88;;;;;;;;;;10512366;28;20067;-79
2021/11/19 11:37:33;;;;;;;8.98;6.63;;;;;;;;;;10504045;28;20029;-80
2021/11/19 11:42:41;;;;;;;10.20;6.70;;;;;;;;;;10516166;28;20111;-79
2021/11/19 11:48:04;;;;;;;9.48;6.60;;;;;;;;;;10492957;28;20039;-79
2021/11/19 11:53:20;;;;;;;9.07;6.95;;;;;;;;;;10510596;28;20034;-79
2021/11/19 11:58:47;;;;;;;11.57;6.70;;;;;;;;;;10505681;28;20036;-79
2021/11/19 12:04:14;;;;;;;9.82;6.55;;;;;;;;;;10484287;28;20355;-79
2021/11/19 12:09:30;;;;;;;8.27;7.00;;;;;;;;;;10481751;28;20040;-79
2021/11/19 12:14:45;;;;;;;11.10;6.82;;;;;;;;;;10513512;28;20094;-79
2021/11/19 12:20:09;;;;;;;8.75;6.88;;;;;;;;;;10516108;28;20033;-79
2021/11/19 12:25:28;;;;;;;10.50;6.53;;;;;;;;;;10533088;28;20032;-79
2021/11/19 12:30:44;;;;;;;10.18;6.80;;;;;;;;;;10544209;22;20045;-83
2021/11/19 12:36:03;;;;;;;10.57;6.65;;;;;;;;;;10511915;28;20064;-81
2021/11/19 12:41:09;;;;;;;10.27;7.38;;;;;;;;;;10495420;28;20119;-81
2021/11/19 12:46:45;;;;;;;10.15;6.97;;;;;;;;;;10488903;28;20464;-82
2021/11/19 12:52:10;;;;;;;9.27;6.55;;;;;;;;;;10499138;28;20039;-82
2021/11/19 12:57:48;;;;;;;9.73;6.80;;;;;;;;;;10484543;28;20044;-82
2021/11/19 13:03:19;;;;;;;12.80;7.10;;;;;;;;;;10486522;28;20042;-81
2021/11/19 13:08:42;;;;;;;9.35;6.75;;;;;;;;;;10449253;28;20033;-82
2021/11/19 13:13:43;;;;;;;10.77;7.35;;;;;;;;;;10484385;28;20114;-82
2021/11/19 13:18:48;;;;;;;8.93;6.82;;;;;;;;;;10513661;28;20031;-82
2021/11/19 13:23:51;;;;;;;9.30;7.07;;;;;;;;;;10511500;28;20056;-81
2021/11/19 13:28:57;;;;;;;10.80;7.07;;;;;;;;;;10490076;28;20040;-78
2021/11/19 13:34:25;;;;;;;8.82;7.10;;;;;;;;;;10475979;28;20108;-82
2021/11/19 13:39:32;;;;;;;13.97;8.00;;;;;;;;;;10472177;28;20045;-83
2021/11/19 13:45:11;;;;;;;9.15;7.07;;;;;;;;;;10468463;28;20458;-81
2021/11/19 13:50:30;;;;;;;9.00;6.88;;;;;;;;;;10427735;28;20041;-84
2021/11/19 13:55:34;;;;;;;12.85;6.72;;;;;;;;;;10466520;28;20239;-83
2021/11/19 14:00:41;;;;;;;11.00;8.18;;;;;;;;;;10498080;28;20032;-83
2021/11/19 14:05:48;;;;;;;8.50;6.88;;;;;;;;;;10488966;28;20028;-83
2021/11/19 14:10:58;;;;;;;12.48;7.00;;;;;;;;;;10491326;28;20024;-83
2021/11/19 14:16:00;;;;;;;9.90;7.20;;;;;;;;;;10472568;28;20070;-83
2021/11/19 14:26:35;;;;;;;11.20;7.63;;;;;;;;;;10487920;28;20028;-83
2021/11/19 14:31:43;;;;;;;15.65;8.30;;;;;;;;;;10479653;28;20123;-82
2021/11/19 14:36:50;;;;;;;18.00;7.77;;;;;;;;;;10508199;28;20032;-83
2021/11/19 14:42:06;;;;;;;14.65;7.43;;;;;;;;;;10497832;28;20024;-83
2021/11/19 14:47:13;;;;;;;13.88;8.02;;;;;;;;;;10467622;28;20086;-83
2021/11/19 14:52:16;;;;;;;17.25;7.82;;;;;;;;;;10479603;28;20028;-83
2021/11/19 14:57:26;;;;;;;11.75;7.38;;;;;;;;;;10475714;28;20047;-83
2021/11/19 15:02:35;;;;;;;14.77;7.88;;;;;;;;;;10467317;28;20021;-83
2021/11/19 15:07:36;;;;;;;15.15;7.90;;;;;;;;;;10476412;28;20024;-82
2021/11/19 15:12:49;;;;;;;12.60;8.25;;;;;;;;;;10464811;28;20509;-83
2021/11/19 15:17:52;;;;;;;15.23;8.10;;;;;;;;;;10463030;28;20382;-84
2021/11/19 15:22:54;;;;;;;13.43;8.88;;;;;;;;;;10495325;28;20093;-82
2021/11/19 15:28:21;;;;;;;13.25;8.73;;;;;;;;;;10496202;28;20049;-81
2021/11/19 15:33:30;;;;;;;12.68;8.48;;;;;;;;;;10464132;28;20491;-81
2021/11/19 15:38:43;;;;;;;12.50;8.43;;;;;;;;;;10505884;28;20120;-80
2021/11/19 15:43:45;;;;;;;12.43;8.05;;;;;;;;;;10484326;28;20066;-81
2021/11/19 15:48:50;;;;;;;13.57;8.90;;;;;;;;;;10487501;28;20035;-81
2021/11/19 15:54:14;;;;;;;17.27;9.23;;;;;;;;;;10498819;28;20413;-80
2021/11/19 15:59:36;;;;;;;14.70;9.50;;;;;;;;;;10483130;28;20040;-82
2021/11/19 16:04:45;;;;;;;17.88;9.25;;;;;;;;;;10492823;28;20032;-81
2021/11/19 16:09:54;;;;;;;23.98;10.18;;;;;;;;;;10485792;28;20028;-81
2021/11/19 16:14:54;;;;;;;21.05;10.27;;;;;;;;;;10496101;28;20028;-81
2021/11/19 16:19:55;;;;;;;19.53;9.73;;;;;;;;;;10507654;28;20029;-80
2021/11/19 16:24:55;;;;;;;22.30;11.37;;;;;;;;;;10502535;28;20511;-81
2021/11/19 16:30:07;;;;;;;15.50;10.20;;;;;;;;;;10493997;28;20051;-80
2021/11/19 16:35:10;;;;;;;18.75;10.95;;;;;;;;;;10497664;28;20025;-80
2021/11/19 16:40:12;;;;;;;20.95;11.13;;;;;;;;;;10511965;28;20035;-80
2021/11/19 16:45:17;;;;;;;24.10;10.60;;;;;;;;;;10502202;28;20024;-80
2021/11/19 16:50:23;;;;;;;22.98;10.90;;;;;;;;;;10489479;28;20062;-80
2021/11/19 16:55:24;;;;;;;20.13;11.50;;;;;;;;;;10488802;28;20378;-79
2021/11/19 17:00:31;;;;;;;17.55;11.10;;;;;;;;;;10493295;28;20032;-79
2021/11/19 17:05:32;;;;;;;18.48;11.07;;;;;;;;;;10478029;28;20458;-79
2021/11/19 17:10:33;;;;;;;16.27;10.07;;;;;;;;;;10481044;28;20029;-79
2021/11/19 17:15:34;;;;;;;17.23;10.13;;;;;;;;;;10485575;28;20123;-79
2021/11/19 17:20:36;;;;;;;18.33;10.25;;;;;;;;;;10497596;28;20440;-80
2021/11/19 17:25:40;;;;;;;21.70;10.65;;;;;;;;;;10476068;28;20081;-80
2021/11/19 17:30:40;;;;;;;20.80;10.57;;;;;;;;;;10467201;28;20090;-80
2021/11/19 17:35:45;;;;;;;15.07;10.25;;;;;;;;;;10473374;28;20115;-80
2021/11/19 17:40:46;;;;;;;20.52;10.48;;;;;;;;;;10466389;28;20027;-82
2021/11/19 17:45:50;;;;;;;19.98;10.68;;;;;;;;;;10479706;28;20362;-83
2021/11/19 17:50:52;;;;;;;20.42;10.13;;;;;;;;;;10478869;28;20056;-82
2021/11/19 17:55:56;;;;;;;18.75;11.85;;;;;;;;;;10466536;28;20127;-82
2021/11/19 18:00:59;;;;;;;18.90;10.80;;;;;;;;;;10482890;28;20048;-82
2021/11/19 18:06:00;;;;;;;21.65;10.70;;;;;;;;;;10469682;28;20039;-80
2021/11/19 18:11:04;;;;;;;14.75;10.10;;;;;;;;;;10472169;28;20136;-81
2021/11/19 18:16:06;;;;;;;16.55;10.75;;;;;;;;;;10467601;28;20036;-82
2021/11/19 18:21:13;;;;;;;18.50;11.80;;;;;;;;;;10469817;28;20485;-81
2021/11/19 18:26:15;;;;;;;22.83;12.07;;;;;;;;;;10464198;28;20419;-80
2021/11/19 18:31:20;;;;;;;17.95;11.35;;;;;;;;;;10479386;28;20051;-82
2021/11/19 18:36:21;;;;;;;18.58;11.88;;;;;;;;;;10479731;28;20032;-82
2021/11/19 18:41:27;;;;;;;18.33;11.48;;;;;;;;;;10500826;28;20067;-81
2021/11/19 18:46:29;;;;;;;23.67;11.88;;;;;;;;;;10492529;28;20086;-82
2021/11/19 18:51:41;;;;;;;19.60;11.98;;;;;;;;;;10475448;28;20029;-83
2021/11/19 18:56:43;;;;;;;22.35;11.60;;;;;;;;;;10460760;28;20056;-81
2021/11/19 19:01:47;;;;;;;32.65;14.23;;;;;;;;;;10459794;28;20497;-81
2021/11/19 19:06:48;;;;;;;28.13;12.13;;;;;;;;;;10471281;28;20029;-84
2021/11/19 19:12:01;;;;;;;31.42;13.30;;;;;;;;;;10503196;28;20364;-83
2021/11/19 19:17:10;;;;;;;22.67;12.90;;;;;;;;;;10501609;28;20027;-83
2021/11/19 19:22:10;;;;;;;32.25;14.73;;;;;;;;;;10498840;28;20071;-82
2021/11/19 19:27:14;;;;;;;23.38;12.50;;;;;;;;;;10404890;28;20565;-81
2021/11/19 19:32:15;;;;;;;25.05;12.77;;;;;;;;;;10411321;28;20033;-81
2021/11/19 19:37:29;;;;;;;20.27;11.95;;;;;;;;;;10404363;28;20042;-83
2021/11/19 19:42:32;;;;;;;23.83;12.50;;;;;;;;;;10401179;28;20057;-83
2021/11/19 19:47:33;;;;;;;21.00;12.23;;;;;;;;;;10412168;28;20033;-83
2021/11/19 19:52:34;;;;;;;21.45;12.43;;;;;;;;;;10394972;28;20053;-83
2021/11/19 19:57:35;;;;;;;19.77;12.35;;;;;;;;;;10389377;28;20044;-83
2021/11/19 20:02:36;;;;;;;23.38;13.23;;;;;;;;;;10395489;28;20041;-83
2021/11/19 20:07:36;;;;;;;24.42;13.13;;;;;;;;;;10387082;28;20030;-87
2021/11/19 20:12:37;;;;;;;22.92;13.80;;;;;;;;;;10407768;28;20091;-83
2021/11/19 20:17:38;;;;;;;20.20;12.60;;;;;;;;;;10401134;28;20025;-83
2021/11/19 20:22:38;;;;;;;30.58;14.55;;;;;;;;;;10404727;28;20040;-80
2021/11/19 20:27:38;;;;;;;26.52;14.60;;;;;;;;;;10380716;28;20038;-81
2021/11/19 20:32:40;;;;;;;31.70;14.57;;;;;;;;;;10408804;28;20021;-81
2021/11/19 20:37:42;;;;;;;28.08;15.18;;;;;;;;;;10417225;28;20463;-80
2021/11/19 20:42:44;;;;;;;24.60;14.48;;;;;;;;;;10402767;28;20375;-80
2021/11/19 20:47:45;;;;;;;28.30;14.93;;;;;;;;;;10411165;28;20034;-81
2021/11/19 20:52:49;;;;;;;24.30;14.18;;;;;;;;;;10397265;28;20036;-80
2021/11/19 20:57:50;;;;;;;26.35;14.73;;;;;;;;;;10422877;28;20040;-80
2021/11/19 21:02:54;;;;;;;29.50;14.90;;;;;;;;;;10439722;28;20463;-80
2021/11/19 21:07:54;;;;;;;24.38;14.68;;;;;;;;;;10434793;28;20033;-80
2021/11/19 21:12:55;;;;;;;27.95;15.40;;;;;;;;;;10413631;28;20030;-81
2021/11/19 21:17:57;;;;;;;22.65;15.00;;;;;;;;;;10407501;28;20040;-80
2021/11/19 21:22:57;;;;;;;21.27;14.57;;;;;;;;;;10415992;28;20374;-80
2021/11/19 21:27:58;;;;;;;24.30;15.65;;;;;;;;;;10417940;28;20132;-80
2021/11/19 21:32:59;;;;;;;28.95;15.13;;;;;;;;;;10416853;28;20115;-80
2021/11/19 21:38:01;;;;;;;26.27;14.27;;;;;;;;;;10419891;28;20100;-84
2021/11/19 21:43:02;;;;;;;24.08;14.55;;;;;;;;;;10397637;28;20029;-84
2021/11/19 21:48:03;;;;;;;20.33;14.20;;;;;;;;;;10427608;28;20083;-85
2021/11/19 21:53:15;;;;;;;21.02;14.30;;;;;;;;;;10415724;28;20079;-89
2021/11/19 21:58:40;;;;;;;20.33;14.23;;;;;;;;;;10428587;28;20098;-85
2021/11/19 22:03:40;;;;;;;20.00;14.27;;;;;;;;;;10395194;28;20033;-87
2021/11/19 22:08:41;;;;;;;21.55;13.93;;;;;;;;;;10389777;28;20040;-87
2021/11/19 22:13:43;;;;;;;22.90;14.98;;;;;;;;;;10424602;28;20032;-87
2021/11/19 22:18:47;;;;;;;26.20;15.35;;;;;;;;;;10417157;28;20509;-87
2021/11/19 22:23:47;;;;;;;21.25;15.88;;;;;;;;;;10408043;28;20032;-87
2021/11/19 22:28:50;;;;;;;22.90;15.07;;;;;;;;;;10419746;28;20041;-87
2021/11/19 22:33:50;;;;;;;25.92;14.63;;;;;;;;;;10427434;28;20362;-87
2021/11/19 22:38:54;;;;;;;23.42;15.07;;;;;;;;;;10420844;28;20038;-87
2021/11/19 22:43:56;;;;;;;21.45;14.18;;;;;;;;;;10395672;28;20604;-87
2021/11/19 22:48:56;;;;;;;20.15;14.68;;;;;;;;;;10407347;28;20040;-88
2021/11/19 22:53:58;;;;;;;19.80;14.10;;;;;;;;;;10398421;28;20040;-87
2021/11/19 22:58:59;;;;;;;21.02;14.55;;;;;;;;;;10397403;28;20033;-86
2021/11/19 23:04:05;;;;;;;22.05;15.30;;;;;;;;;;10391475;28;20083;-86
2021/11/19 23:09:09;;;;;;;23.05;14.93;;;;;;;;;;10414511;28;20514;-85
2021/11/19 23:14:12;;;;;;;36.08;16.10;;;;;;;;;;10390444;28;20034;-87
2021/11/19 23:19:14;;;;;;;30.65;15.50;;;;;;;;;;10400190;28;20037;-87
2021/11/19 23:24:17;;;;;;;29.05;15.43;;;;;;;;;;10392397;28;20038;-87
2021/11/19 23:29:22;;;;;;;26.58;15.70;;;;;;;;;;10427280;28;20095;-87
2021/11/19 23:34:31;;;;;;;30.50;14.68;;;;;;;;;;10419778;28;20032;-86
2021/11/19 23:39:33;;;;;;;25.60;14.45;;;;;;;;;;10422251;28;20026;-86
2021/11/19 23:44:33;;;;;;;28.33;14.35;;;;;;;;;;10433091;28;20462;-87
2021/11/19 23:49:35;;;;;;;27.77;15.13;;;;;;;;;;10432742;28;20087;-87
2021/11/19 23:54:37;;;;;;;28.48;15.98;;;;;;;;;;10416366;28;20041;-87
2021/11/19 23:59:39;;;;;;;24.85;14.25;;;;;;;;;;10429710;28;20032;-87
